sensor_id;sensor_type;location;lat;lon;timestamp;P1;durP1;ratioP1;P2;durP2;ratioP2
43606;SDS011;29197;44.788;10.366;2023-05-19T00:01:38;4.53;;;3.10;;
43606;SDS011;29197;44.788;10.366;2023-05-19T00:04:31;5.63;;;3.50;;
43606;SDS011;29197;44.788;10.366;2023-05-19T00:07:21;5.45;;;3.33;;
43606;SDS011;29197;44.788;10.366;2023-05-19T00:10:11;4.50;;;3.33;;
43606;SDS011;29197;44.788;10.366;2023-05-19T00:13:00;4.90;;;3.10;;
43606;SDS011;29197;44.788;10.366;2023-05-19T00:15:49;3.47;;;3.10;;
43606;SDS011;29197;44.788;10.366;2023-05-19T00:18:38;5.38;;;4.00;;
43606;SDS011;29197;44.788;10.366;2023-05-19T00:21:29;7.00;;;3.72;;
43606;SDS011;29197;44.788;10.366;2023-05-19T00:24:18;4.28;;;3.80;;
43606;SDS011;29197;44.788;10.366;2023-05-19T00:27:06;7.30;;;3.53;;
43606;SDS011;29197;44.788;10.366;2023-05-19T00:29:55;6.53;;;3.90;;
43606;SDS011;29197;44.788;10.366;2023-05-19T00:32:44;5.90;;;4.03;;
43606;SDS011;29197;44.788;10.366;2023-05-19T00:35:33;5.75;;;3.63;;
43606;SDS011;29197;44.788;10.366;2023-05-19T00:38:23;3.60;;;3.08;;
43606;SDS011;29197;44.788;10.366;2023-05-19T00:41:12;3.75;;;3.38;;
43606;SDS011;29197;44.788;10.366;2023-05-19T00:44:01;6.63;;;4.03;;
43606;SDS011;29197;44.788;10.366;2023-05-19T00:46:50;5.53;;;3.78;;
43606;SDS011;29197;44.788;10.366;2023-05-19T00:49:39;4.40;;;3.55;;
43606;SDS011;29197;44.788;10.366;2023-05-19T00:52:27;4.88;;;4.00;;
43606;SDS011;29197;44.788;10.366;2023-05-19T00:55:18;6.45;;;4.22;;
43606;SDS011;29197;44.788;10.366;2023-05-19T00:58:07;7.32;;;4.93;;
43606;SDS011;29197;44.788;10.366;2023-05-19T01:00:57;25.23;;;6.38;;
43606;SDS011;29197;44.788;10.366;2023-05-19T01:03:49;6.18;;;4.28;;
43606;SDS011;29197;44.788;10.366;2023-05-19T01:06:39;5.93;;;4.38;;
43606;SDS011;29197;44.788;10.366;2023-05-19T01:09:28;5.72;;;4.45;;
43606;SDS011;29197;44.788;10.366;2023-05-19T01:12:19;6.10;;;4.45;;
43606;SDS011;29197;44.788;10.366;2023-05-19T01:15:08;5.68;;;4.15;;
43606;SDS011;29197;44.788;10.366;2023-05-19T01:17:58;5.22;;;4.25;;
43606;SDS011;29197;44.788;10.366;2023-05-19T01:20:50;6.05;;;4.60;;
43606;SDS011;29197;44.788;10.366;2023-05-19T01:23:42;5.97;;;4.30;;
43606;SDS011;29197;44.788;10.366;2023-05-19T01:26:39;5.57;;;4.13;;
43606;SDS011;29197;44.788;10.366;2023-05-19T01:29:47;7.35;;;4.53;;
43606;SDS011;29197;44.788;10.366;2023-05-19T01:32:43;5.00;;;4.00;;
43606;SDS011;29197;44.788;10.366;2023-05-19T01:35:34;7.97;;;4.75;;
43606;SDS011;29197;44.788;10.366;2023-05-19T01:38:23;7.57;;;5.60;;
43606;SDS011;29197;44.788;10.366;2023-05-19T01:41:12;7.43;;;4.93;;
43606;SDS011;29197;44.788;10.366;2023-05-19T01:44:01;7.18;;;4.70;;
43606;SDS011;29197;44.788;10.366;2023-05-19T01:46:50;6.65;;;4.50;;
43606;SDS011;29197;44.788;10.366;2023-05-19T01:49:40;5.55;;;4.88;;
43606;SDS011;29197;44.788;10.366;2023-05-19T01:52:29;6.55;;;4.53;;
43606;SDS011;29197;44.788;10.366;2023-05-19T01:55:18;6.63;;;5.05;;
43606;SDS011;29197;44.788;10.366;2023-05-19T01:58:09;6.68;;;5.20;;
43606;SDS011;29197;44.788;10.366;2023-05-19T02:01:07;6.22;;;4.55;;
43606;SDS011;29197;44.788;10.366;2023-05-19T02:04:00;6.63;;;4.35;;
43606;SDS011;29197;44.788;10.366;2023-05-19T02:06:54;7.40;;;4.65;;
43606;SDS011;29197;44.788;10.366;2023-05-19T02:09:51;5.05;;;3.95;;
43606;SDS011;29197;44.788;10.366;2023-05-19T02:12:41;4.68;;;4.07;;
43606;SDS011;29197;44.788;10.366;2023-05-19T02:15:33;6.90;;;4.22;;
43606;SDS011;29197;44.788;10.366;2023-05-19T02:18:24;4.63;;;3.80;;
43606;SDS011;29197;44.788;10.366;2023-05-19T02:21:15;4.95;;;4.22;;
43606;SDS011;29197;44.788;10.366;2023-05-19T02:24:06;5.55;;;4.20;;
43606;SDS011;29197;44.788;10.366;2023-05-19T02:26:54;7.28;;;5.00;;
43606;SDS011;29197;44.788;10.366;2023-05-19T02:29:43;5.30;;;4.07;;
43606;SDS011;29197;44.788;10.366;2023-05-19T02:32:32;5.03;;;4.53;;
43606;SDS011;29197;44.788;10.366;2023-05-19T02:35:22;7.25;;;3.85;;
43606;SDS011;29197;44.788;10.366;2023-05-19T02:38:10;7.47;;;5.05;;
43606;SDS011;29197;44.788;10.366;2023-05-19T02:41:00;5.72;;;4.00;;
43606;SDS011;29197;44.788;10.366;2023-05-19T02:43:49;4.15;;;3.50;;
43606;SDS011;29197;44.788;10.366;2023-05-19T02:46:38;7.70;;;5.85;;
43606;SDS011;29197;44.788;10.366;2023-05-19T02:49:27;6.72;;;4.55;;
43606;SDS011;29197;44.788;10.366;2023-05-19T02:52:21;7.05;;;4.57;;
43606;SDS011;29197;44.788;10.366;2023-05-19T02:55:10;6.60;;;3.97;;
43606;SDS011;29197;44.788;10.366;2023-05-19T02:58:03;7.53;;;3.75;;
43606;SDS011;29197;44.788;10.366;2023-05-19T03:00:52;5.18;;;3.28;;
43606;SDS011;29197;44.788;10.366;2023-05-19T03:03:42;3.75;;;3.03;;
43606;SDS011;29197;44.788;10.366;2023-05-19T03:06:31;4.65;;;3.83;;
43606;SDS011;29197;44.788;10.366;2023-05-19T03:09:20;3.65;;;2.90;;
43606;SDS011;29197;44.788;10.366;2023-05-19T03:12:08;4.63;;;2.97;;
43606;SDS011;29197;44.788;10.366;2023-05-19T03:14:59;6.18;;;3.30;;
43606;SDS011;29197;44.788;10.366;2023-05-19T03:17:47;3.92;;;2.85;;
43606;SDS011;29197;44.788;10.366;2023-05-19T03:20:37;3.22;;;2.60;;
43606;SDS011;29197;44.788;10.366;2023-05-19T03:23:29;3.30;;;2.35;;
43606;SDS011;29197;44.788;10.366;2023-05-19T03:26:17;4.20;;;3.03;;
43606;SDS011;29197;44.788;10.366;2023-05-19T03:29:08;2.90;;;2.60;;
43606;SDS011;29197;44.788;10.366;2023-05-19T03:31:58;2.30;;;2.10;;
43606;SDS011;29197;44.788;10.366;2023-05-19T03:34:47;5.72;;;2.63;;
43606;SDS011;29197;44.788;10.366;2023-05-19T03:37:36;5.32;;;2.15;;
43606;SDS011;29197;44.788;10.366;2023-05-19T03:40:25;4.80;;;2.83;;
43606;SDS011;29197;44.788;10.366;2023-05-19T03:43:13;4.78;;;2.50;;
43606;SDS011;29197;44.788;10.366;2023-05-19T03:46:02;3.22;;;2.90;;
43606;SDS011;29197;44.788;10.366;2023-05-19T03:48:53;3.72;;;3.28;;
43606;SDS011;29197;44.788;10.366;2023-05-19T03:51:41;3.75;;;3.22;;
43606;SDS011;29197;44.788;10.366;2023-05-19T03:54:30;5.35;;;3.15;;
43606;SDS011;29197;44.788;10.366;2023-05-19T03:57:19;4.05;;;3.08;;
43606;SDS011;29197;44.788;10.366;2023-05-19T04:00:08;3.95;;;3.22;;
43606;SDS011;29197;44.788;10.366;2023-05-19T04:02:57;8.95;;;3.90;;
43606;SDS011;29197;44.788;10.366;2023-05-19T04:05:48;6.22;;;3.40;;
43606;SDS011;29197;44.788;10.366;2023-05-19T04:08:37;4.72;;;3.05;;
43606;SDS011;29197;44.788;10.366;2023-05-19T04:11:26;5.55;;;3.40;;
43606;SDS011;29197;44.788;10.366;2023-05-19T04:14:15;5.43;;;4.18;;
43606;SDS011;29197;44.788;10.366;2023-05-19T04:17:05;5.13;;;3.60;;
43606;SDS011;29197;44.788;10.366;2023-05-19T04:19:54;4.43;;;3.80;;
43606;SDS011;29197;44.788;10.366;2023-05-19T04:22:44;4.95;;;3.90;;
43606;SDS011;29197;44.788;10.366;2023-05-19T04:25:33;6.28;;;4.22;;
43606;SDS011;29197;44.788;10.366;2023-05-19T04:28:22;6.13;;;3.95;;
43606;SDS011;29197;44.788;10.366;2023-05-19T04:31:10;4.97;;;4.40;;
43606;SDS011;29197;44.788;10.366;2023-05-19T04:33:59;6.60;;;4.40;;
43606;SDS011;29197;44.788;10.366;2023-05-19T04:36:48;6.70;;;4.05;;
43606;SDS011;29197;44.788;10.366;2023-05-19T04:39:40;6.10;;;3.88;;
43606;SDS011;29197;44.788;10.366;2023-05-19T04:42:31;7.18;;;3.95;;
43606;SDS011;29197;44.788;10.366;2023-05-19T04:45:19;8.18;;;4.80;;
43606;SDS011;29197;44.788;10.366;2023-05-19T04:48:08;4.78;;;4.20;;
43606;SDS011;29197;44.788;10.366;2023-05-19T04:50:58;5.90;;;4.53;;
43606;SDS011;29197;44.788;10.366;2023-05-19T04:53:47;4.55;;;3.60;;
43606;SDS011;29197;44.788;10.366;2023-05-19T04:56:38;4.40;;;3.47;;
43606;SDS011;29197;44.788;10.366;2023-05-19T04:59:27;6.22;;;3.90;;
43606;SDS011;29197;44.788;10.366;2023-05-19T05:02:16;4.32;;;3.53;;
43606;SDS011;29197;44.788;10.366;2023-05-19T05:05:06;4.90;;;3.83;;
43606;SDS011;29197;44.788;10.366;2023-05-19T05:07:55;4.07;;;3.25;;
43606;SDS011;29197;44.788;10.366;2023-05-19T05:10:44;5.03;;;3.30;;
43606;SDS011;29197;44.788;10.366;2023-05-19T05:13:35;4.57;;;3.50;;
43606;SDS011;29197;44.788;10.366;2023-05-19T05:16:24;6.38;;;3.22;;
43606;SDS011;29197;44.788;10.366;2023-05-19T05:19:13;4.25;;;3.17;;
43606;SDS011;29197;44.788;10.366;2023-05-19T05:22:02;4.18;;;3.30;;
43606;SDS011;29197;44.788;10.366;2023-05-19T05:24:52;3.65;;;3.10;;
43606;SDS011;29197;44.788;10.366;2023-05-19T05:27:40;3.85;;;2.80;;
43606;SDS011;29197;44.788;10.366;2023-05-19T05:30:32;4.95;;;3.15;;
43606;SDS011;29197;44.788;10.366;2023-05-19T05:33:21;4.10;;;3.22;;
43606;SDS011;29197;44.788;10.366;2023-05-19T05:36:10;5.13;;;3.33;;
43606;SDS011;29197;44.788;10.366;2023-05-19T05:38:59;3.97;;;2.80;;
43606;SDS011;29197;44.788;10.366;2023-05-19T05:41:49;4.75;;;3.15;;
43606;SDS011;29197;44.788;10.366;2023-05-19T05:44:38;4.40;;;3.20;;
43606;SDS011;29197;44.788;10.366;2023-05-19T05:47:29;3.90;;;2.88;;
43606;SDS011;29197;44.788;10.366;2023-05-19T05:50:18;5.75;;;3.55;;
43606;SDS011;29197;44.788;10.366;2023-05-19T05:53:07;4.55;;;3.20;;
43606;SDS011;29197;44.788;10.366;2023-05-19T05:55:56;4.03;;;2.92;;
43606;SDS011;29197;44.788;10.366;2023-05-19T05:58:45;4.78;;;3.63;;
43606;SDS011;29197;44.788;10.366;2023-05-19T06:01:35;5.45;;;3.58;;
43606;SDS011;29197;44.788;10.366;2023-05-19T06:04:25;3.22;;;2.80;;
43606;SDS011;29197;44.788;10.366;2023-05-19T06:07:14;3.20;;;2.90;;
43606;SDS011;29197;44.788;10.366;2023-05-19T06:10:03;5.25;;;3.35;;
43606;SDS011;29197;44.788;10.366;2023-05-19T06:12:52;4.10;;;2.92;;
43606;SDS011;29197;44.788;10.366;2023-05-19T06:15:41;3.53;;;2.97;;
43606;SDS011;29197;44.788;10.366;2023-05-19T06:18:30;4.90;;;3.38;;
43606;SDS011;29197;44.788;10.366;2023-05-19T06:21:20;5.30;;;3.25;;
43606;SDS011;29197;44.788;10.366;2023-05-19T06:24:09;6.50;;;3.22;;
43606;SDS011;29197;44.788;10.366;2023-05-19T06:26:58;4.43;;;3.30;;
43606;SDS011;29197;44.788;10.366;2023-05-19T06:29:46;4.57;;;3.50;;
43606;SDS011;29197;44.788;10.366;2023-05-19T06:32:35;6.10;;;3.58;;
43606;SDS011;29197;44.788;10.366;2023-05-19T06:35:24;5.07;;;3.28;;
43606;SDS011;29197;44.788;10.366;2023-05-19T06:38:14;5.43;;;3.08;;
43606;SDS011;29197;44.788;10.366;2023-05-19T06:41:03;5.50;;;2.55;;
43606;SDS011;29197;44.788;10.366;2023-05-19T06:43:52;4.70;;;2.97;;
43606;SDS011;29197;44.788;10.366;2023-05-19T06:46:42;5.68;;;3.20;;
43606;SDS011;29197;44.788;10.366;2023-05-19T06:49:30;4.53;;;3.33;;
43606;SDS011;29197;44.788;10.366;2023-05-19T06:52:19;4.28;;;3.30;;
43606;SDS011;29197;44.788;10.366;2023-05-19T06:55:09;5.18;;;2.85;;
43606;SDS011;29197;44.788;10.366;2023-05-19T06:57:58;4.72;;;3.22;;
43606;SDS011;29197;44.788;10.366;2023-05-19T07:00:47;5.85;;;3.63;;
43606;SDS011;29197;44.788;10.366;2023-05-19T07:03:36;3.72;;;3.08;;
43606;SDS011;29197;44.788;10.366;2023-05-19T07:06:25;4.35;;;3.30;;
43606;SDS011;29197;44.788;10.366;2023-05-19T07:09:07;5.28;;;3.20;;
43606;SDS011;29197;44.788;10.366;2023-05-19T07:11:58;5.57;;;3.70;;
43606;SDS011;29197;44.788;10.366;2023-05-19T07:14:47;4.82;;;3.60;;
43606;SDS011;29197;44.788;10.366;2023-05-19T07:17:35;4.85;;;3.85;;
43606;SDS011;29197;44.788;10.366;2023-05-19T07:20:24;5.95;;;3.63;;
43606;SDS011;29197;44.788;10.366;2023-05-19T07:23:13;5.22;;;4.10;;
43606;SDS011;29197;44.788;10.366;2023-05-19T07:26:03;5.53;;;3.70;;
43606;SDS011;29197;44.788;10.366;2023-05-19T07:28:53;5.82;;;3.15;;
43606;SDS011;29197;44.788;10.366;2023-05-19T07:31:43;7.65;;;2.92;;
43606;SDS011;29197;44.788;10.366;2023-05-19T07:34:32;6.45;;;3.90;;
43606;SDS011;29197;44.788;10.366;2023-05-19T07:37:20;9.68;;;3.13;;
43606;SDS011;29197;44.788;10.366;2023-05-19T07:40:09;6.03;;;3.67;;
43606;SDS011;29197;44.788;10.366;2023-05-19T07:42:58;4.13;;;3.00;;
43606;SDS011;29197;44.788;10.366;2023-05-19T07:45:48;4.20;;;2.63;;
43606;SDS011;29197;44.788;10.366;2023-05-19T07:48:39;3.60;;;3.10;;
43606;SDS011;29197;44.788;10.366;2023-05-19T07:51:28;4.47;;;3.40;;
43606;SDS011;29197;44.788;10.366;2023-05-19T07:54:17;5.50;;;3.40;;
43606;SDS011;29197;44.788;10.366;2023-05-19T07:57:06;7.15;;;3.53;;
43606;SDS011;29197;44.788;10.366;2023-05-19T07:59:55;6.05;;;3.45;;
43606;SDS011;29197;44.788;10.366;2023-05-19T08:02:45;6.10;;;4.18;;
43606;SDS011;29197;44.788;10.366;2023-05-19T08:05:34;3.65;;;3.10;;
43606;SDS011;29197;44.788;10.366;2023-05-19T08:08:23;6.47;;;3.90;;
43606;SDS011;29197;44.788;10.366;2023-05-19T08:11:12;5.65;;;3.50;;
43606;SDS011;29197;44.788;10.366;2023-05-19T08:14:01;3.78;;;3.13;;
43606;SDS011;29197;44.788;10.366;2023-05-19T08:16:49;7.70;;;4.20;;
43606;SDS011;29197;44.788;10.366;2023-05-19T08:19:40;5.47;;;4.00;;
43606;SDS011;29197;44.788;10.366;2023-05-19T08:22:28;4.90;;;3.45;;
43606;SDS011;29197;44.788;10.366;2023-05-19T08:25:17;5.57;;;4.03;;
43606;SDS011;29197;44.788;10.366;2023-05-19T08:28:06;7.57;;;4.07;;
43606;SDS011;29197;44.788;10.366;2023-05-19T08:30:55;4.85;;;3.78;;
43606;SDS011;29197;44.788;10.366;2023-05-19T08:33:43;4.78;;;3.47;;
43606;SDS011;29197;44.788;10.366;2023-05-19T08:36:34;5.55;;;3.63;;
43606;SDS011;29197;44.788;10.366;2023-05-19T08:39:22;6.22;;;3.83;;
43606;SDS011;29197;44.788;10.366;2023-05-19T08:42:12;4.13;;;3.38;;
43606;SDS011;29197;44.788;10.366;2023-05-19T08:45:01;4.15;;;3.60;;
43606;SDS011;29197;44.788;10.366;2023-05-19T08:47:50;5.65;;;3.45;;
43606;SDS011;29197;44.788;10.366;2023-05-19T08:50:39;6.95;;;3.92;;
43606;SDS011;29197;44.788;10.366;2023-05-19T08:53:31;4.68;;;3.58;;
43606;SDS011;29197;44.788;10.366;2023-05-19T08:56:23;4.75;;;3.85;;
43606;SDS011;29197;44.788;10.366;2023-05-19T08:59:13;8.27;;;3.80;;
43606;SDS011;29197;44.788;10.366;2023-05-19T09:02:02;5.63;;;3.88;;
43606;SDS011;29197;44.788;10.366;2023-05-19T09:04:51;5.22;;;3.88;;
43606;SDS011;29197;44.788;10.366;2023-05-19T09:07:40;7.03;;;4.88;;
43606;SDS011;29197;44.788;10.366;2023-05-19T09:10:32;7.60;;;4.75;;
43606;SDS011;29197;44.788;10.366;2023-05-19T09:13:21;5.38;;;4.82;;
43606;SDS011;29197;44.788;10.366;2023-05-19T09:16:10;9.95;;;5.20;;
43606;SDS011;29197;44.788;10.366;2023-05-19T09:18:59;9.35;;;5.50;;
43606;SDS011;29197;44.788;10.366;2023-05-19T09:21:56;6.75;;;5.20;;
43606;SDS011;29197;44.788;10.366;2023-05-19T09:24:46;6.60;;;4.90;;
43606;SDS011;29197;44.788;10.366;2023-05-19T09:27:36;5.72;;;4.50;;
43606;SDS011;29197;44.788;10.366;2023-05-19T09:30:25;5.18;;;4.65;;
43606;SDS011;29197;44.788;10.366;2023-05-19T09:33:15;6.47;;;4.93;;
43606;SDS011;29197;44.788;10.366;2023-05-19T09:36:05;6.07;;;4.95;;
43606;SDS011;29197;44.788;10.366;2023-05-19T09:38:56;6.95;;;4.85;;
43606;SDS011;29197;44.788;10.366;2023-05-19T09:41:45;7.13;;;5.10;;
43606;SDS011;29197;44.788;10.366;2023-05-19T09:44:35;6.20;;;5.25;;
43606;SDS011;29197;44.788;10.366;2023-05-19T09:47:24;6.63;;;4.90;;
43606;SDS011;29197;44.788;10.366;2023-05-19T09:50:13;7.13;;;5.28;;
43606;SDS011;29197;44.788;10.366;2023-05-19T09:53:02;6.85;;;5.57;;
43606;SDS011;29197;44.788;10.366;2023-05-19T09:55:53;7.93;;;5.50;;
43606;SDS011;29197;44.788;10.366;2023-05-19T09:58:43;6.97;;;5.45;;
43606;SDS011;29197;44.788;10.366;2023-05-19T10:01:34;6.30;;;5.53;;
43606;SDS011;29197;44.788;10.366;2023-05-19T10:04:27;6.22;;;5.20;;
43606;SDS011;29197;44.788;10.366;2023-05-19T10:07:16;8.05;;;4.45;;
43606;SDS011;29197;44.788;10.366;2023-05-19T10:10:08;8.90;;;5.78;;
43606;SDS011;29197;44.788;10.366;2023-05-19T10:12:59;10.48;;;6.05;;
43606;SDS011;29197;44.788;10.366;2023-05-19T10:15:49;8.27;;;5.60;;
43606;SDS011;29197;44.788;10.366;2023-05-19T10:18:46;7.10;;;5.75;;
43606;SDS011;29197;44.788;10.366;2023-05-19T10:21:37;8.93;;;6.25;;
43606;SDS011;29197;44.788;10.366;2023-05-19T10:24:26;7.55;;;6.15;;
43606;SDS011;29197;44.788;10.366;2023-05-19T10:27:15;7.75;;;6.35;;
43606;SDS011;29197;44.788;10.366;2023-05-19T10:30:06;8.80;;;6.70;;
43606;SDS011;29197;44.788;10.366;2023-05-19T10:32:59;9.75;;;7.20;;
43606;SDS011;29197;44.788;10.366;2023-05-19T10:38:59;10.38;;;7.32;;
43606;SDS011;29197;44.788;10.366;2023-05-19T10:41:53;9.85;;;7.10;;
43606;SDS011;29197;44.788;10.366;2023-05-19T10:44:52;8.73;;;6.38;;
43606;SDS011;29197;44.788;10.366;2023-05-19T10:47:42;9.20;;;7.28;;
43606;SDS011;29197;44.788;10.366;2023-05-19T10:50:34;9.48;;;8.00;;
43606;SDS011;29197;44.788;10.366;2023-05-19T10:53:29;8.90;;;6.70;;
43606;SDS011;29197;44.788;10.366;2023-05-19T10:56:27;11.50;;;7.65;;
43606;SDS011;29197;44.788;10.366;2023-05-19T10:59:31;11.07;;;7.90;;
43606;SDS011;29197;44.788;10.366;2023-05-19T11:02:36;16.13;;;9.88;;
43606;SDS011;29197;44.788;10.366;2023-05-19T11:05:27;12.50;;;7.05;;
43606;SDS011;29197;44.788;10.366;2023-05-19T11:08:17;10.73;;;8.18;;
43606;SDS011;29197;44.788;10.366;2023-05-19T11:11:19;8.30;;;6.65;;
43606;SDS011;29197;44.788;10.366;2023-05-19T11:14:10;7.68;;;6.30;;
43606;SDS011;29197;44.788;10.366;2023-05-19T11:16:59;9.00;;;6.18;;
43606;SDS011;29197;44.788;10.366;2023-05-19T11:19:52;7.78;;;6.43;;
43606;SDS011;29197;44.788;10.366;2023-05-19T11:22:41;8.45;;;5.25;;
43606;SDS011;29197;44.788;10.366;2023-05-19T11:25:43;7.03;;;5.18;;
43606;SDS011;29197;44.788;10.366;2023-05-19T11:28:32;7.60;;;5.03;;
43606;SDS011;29197;44.788;10.366;2023-05-19T11:31:23;6.78;;;4.28;;
43606;SDS011;29197;44.788;10.366;2023-05-19T11:34:13;6.35;;;5.00;;
43606;SDS011;29197;44.788;10.366;2023-05-19T11:37:03;8.52;;;5.00;;
43606;SDS011;29197;44.788;10.366;2023-05-19T11:39:52;6.78;;;4.80;;
43606;SDS011;29197;44.788;10.366;2023-05-19T11:42:40;7.38;;;5.30;;
43606;SDS011;29197;44.788;10.366;2023-05-19T11:45:30;8.10;;;5.47;;
43606;SDS011;29197;44.788;10.366;2023-05-19T11:48:21;6.35;;;5.22;;
43606;SDS011;29197;44.788;10.366;2023-05-19T11:51:10;7.30;;;6.13;;
43606;SDS011;29197;44.788;10.366;2023-05-19T11:53:59;7.95;;;6.10;;
43606;SDS011;29197;44.788;10.366;2023-05-19T11:56:48;9.23;;;6.43;;
43606;SDS011;29197;44.788;10.366;2023-05-19T11:59:37;8.88;;;5.68;;
43606;SDS011;29197;44.788;10.366;2023-05-19T12:02:29;7.75;;;5.82;;
43606;SDS011;29197;44.788;10.366;2023-05-19T12:05:20;7.85;;;5.68;;
43606;SDS011;29197;44.788;10.366;2023-05-19T12:08:09;9.45;;;6.80;;
43606;SDS011;29197;44.788;10.366;2023-05-19T12:10:58;8.57;;;5.38;;
43606;SDS011;29197;44.788;10.366;2023-05-19T12:13:47;9.90;;;6.47;;
43606;SDS011;29197;44.788;10.366;2023-05-19T12:16:40;8.98;;;6.25;;
43606;SDS011;29197;44.788;10.366;2023-05-19T12:19:29;6.50;;;4.88;;
43606;SDS011;29197;44.788;10.366;2023-05-19T12:22:19;6.20;;;5.05;;
43606;SDS011;29197;44.788;10.366;2023-05-19T12:25:08;7.20;;;4.78;;
43606;SDS011;29197;44.788;10.366;2023-05-19T12:27:57;5.95;;;4.15;;
43606;SDS011;29197;44.788;10.366;2023-05-19T12:30:46;5.13;;;3.83;;
43606;SDS011;29197;44.788;10.366;2023-05-19T12:33:35;8.52;;;4.45;;
43606;SDS011;29197;44.788;10.366;2023-05-19T12:36:24;19.88;;;11.05;;
43606;SDS011;29197;44.788;10.366;2023-05-19T12:39:15;6.93;;;4.75;;
43606;SDS011;29197;44.788;10.366;2023-05-19T12:42:07;7.22;;;5.90;;
43606;SDS011;29197;44.788;10.366;2023-05-19T12:44:56;11.10;;;5.43;;
43606;SDS011;29197;44.788;10.366;2023-05-19T12:47:48;4.95;;;3.65;;
43606;SDS011;29197;44.788;10.366;2023-05-19T12:50:38;4.93;;;3.67;;
43606;SDS011;29197;44.788;10.366;2023-05-19T12:53:27;6.20;;;4.05;;
43606;SDS011;29197;44.788;10.366;2023-05-19T12:56:18;4.72;;;3.40;;
43606;SDS011;29197;44.788;10.366;2023-05-19T12:59:06;6.43;;;3.67;;
43606;SDS011;29197;44.788;10.366;2023-05-19T13:01:55;6.43;;;4.20;;
43606;SDS011;29197;44.788;10.366;2023-05-19T13:04:44;7.30;;;4.28;;
43606;SDS011;29197;44.788;10.366;2023-05-19T13:07:33;7.90;;;5.13;;
43606;SDS011;29197;44.788;10.366;2023-05-19T13:10:22;5.10;;;3.85;;
43606;SDS011;29197;44.788;10.366;2023-05-19T13:13:13;5.70;;;4.47;;
43606;SDS011;29197;44.788;10.366;2023-05-19T13:16:03;5.80;;;4.07;;
43606;SDS011;29197;44.788;10.366;2023-05-19T13:18:51;5.20;;;3.95;;
43606;SDS011;29197;44.788;10.366;2023-05-19T13:21:40;5.85;;;4.22;;
43606;SDS011;29197;44.788;10.366;2023-05-19T13:24:29;8.02;;;4.57;;
43606;SDS011;29197;44.788;10.366;2023-05-19T13:27:19;5.07;;;3.63;;
43606;SDS011;29197;44.788;10.366;2023-05-19T13:30:11;4.95;;;2.90;;
43606;SDS011;29197;44.788;10.366;2023-05-19T13:33:01;4.78;;;2.80;;
43606;SDS011;29197;44.788;10.366;2023-05-19T13:35:50;4.75;;;2.22;;
43606;SDS011;29197;44.788;10.366;2023-05-19T13:38:39;2.03;;;1.88;;
43606;SDS011;29197;44.788;10.366;2023-05-19T13:41:27;4.75;;;2.80;;
43606;SDS011;29197;44.788;10.366;2023-05-19T13:44:16;4.20;;;2.80;;
43606;SDS011;29197;44.788;10.366;2023-05-19T13:47:06;1.95;;;1.80;;
43606;SDS011;29197;44.788;10.366;2023-05-19T13:49:55;1.48;;;1.38;;
43606;SDS011;29197;44.788;10.366;2023-05-19T13:52:44;2.50;;;1.50;;
43606;SDS011;29197;44.788;10.366;2023-05-19T13:55:33;3.67;;;1.80;;
43606;SDS011;29197;44.788;10.366;2023-05-19T13:58:21;2.58;;;1.80;;
43606;SDS011;29197;44.788;10.366;2023-05-19T14:01:10;1.77;;;1.55;;
43606;SDS011;29197;44.788;10.366;2023-05-19T14:04:01;3.17;;;2.10;;
43606;SDS011;29197;44.788;10.366;2023-05-19T14:06:50;5.25;;;2.50;;
43606;SDS011;29197;44.788;10.366;2023-05-19T14:09:39;3.60;;;2.50;;
43606;SDS011;29197;44.788;10.366;2023-05-19T14:12:28;5.00;;;2.53;;
43606;SDS011;29197;44.788;10.366;2023-05-19T14:15:33;5.38;;;3.47;;
43606;SDS011;29197;44.788;10.366;2023-05-19T14:18:23;5.80;;;4.03;;
43606;SDS011;29197;44.788;10.366;2023-05-19T14:21:14;4.35;;;3.38;;
43606;SDS011;29197;44.788;10.366;2023-05-19T14:24:03;4.82;;;3.33;;
43606;SDS011;29197;44.788;10.366;2023-05-19T14:26:51;3.35;;;2.80;;
43606;SDS011;29197;44.788;10.366;2023-05-19T14:29:40;3.22;;;2.55;;
43606;SDS011;29197;44.788;10.366;2023-05-19T14:32:29;4.55;;;2.80;;
43606;SDS011;29197;44.788;10.366;2023-05-19T14:35:18;3.58;;;2.45;;
43606;SDS011;29197;44.788;10.366;2023-05-19T14:38:08;3.67;;;2.50;;
43606;SDS011;29197;44.788;10.366;2023-05-19T14:40:57;2.78;;;2.10;;
43606;SDS011;29197;44.788;10.366;2023-05-19T14:43:46;5.88;;;2.78;;
43606;SDS011;29197;44.788;10.366;2023-05-19T14:46:35;5.40;;;2.88;;
43606;SDS011;29197;44.788;10.366;2023-05-19T14:49:23;3.40;;;2.50;;
43606;SDS011;29197;44.788;10.366;2023-05-19T14:52:12;7.35;;;3.85;;
43606;SDS011;29197;44.788;10.366;2023-05-19T14:55:03;5.18;;;2.90;;
43606;SDS011;29197;44.788;10.366;2023-05-19T14:57:52;5.53;;;3.30;;
43606;SDS011;29197;44.788;10.366;2023-05-19T15:00:40;4.80;;;3.28;;
43606;SDS011;29197;44.788;10.366;2023-05-19T15:03:29;5.05;;;3.63;;
43606;SDS011;29197;44.788;10.366;2023-05-19T15:06:18;5.32;;;3.30;;
43606;SDS011;29197;44.788;10.366;2023-05-19T15:09:07;4.22;;;2.97;;
43606;SDS011;29197;44.788;10.366;2023-05-19T15:12:01;6.22;;;3.70;;
43606;SDS011;29197;44.788;10.366;2023-05-19T15:14:50;5.35;;;3.72;;
43606;SDS011;29197;44.788;10.366;2023-05-19T15:17:38;5.30;;;3.58;;
43606;SDS011;29197;44.788;10.366;2023-05-19T15:20:27;4.97;;;3.85;;
43606;SDS011;29197;44.788;10.366;2023-05-19T15:23:16;6.47;;;4.25;;
43606;SDS011;29197;44.788;10.366;2023-05-19T15:26:05;6.38;;;3.70;;
43606;SDS011;29197;44.788;10.366;2023-05-19T15:28:55;4.20;;;3.55;;
43606;SDS011;29197;44.788;10.366;2023-05-19T15:31:44;5.63;;;3.92;;
43606;SDS011;29197;44.788;10.366;2023-05-19T15:34:33;7.53;;;3.97;;
43606;SDS011;29197;44.788;10.366;2023-05-19T15:37:22;5.72;;;3.97;;
43606;SDS011;29197;44.788;10.366;2023-05-19T15:40:11;6.55;;;3.38;;
43606;SDS011;29197;44.788;10.366;2023-05-19T15:43:00;4.78;;;2.80;;
43606;SDS011;29197;44.788;10.366;2023-05-19T15:45:50;3.60;;;2.70;;
43606;SDS011;29197;44.788;10.366;2023-05-19T15:48:40;3.70;;;2.35;;
43606;SDS011;29197;44.788;10.366;2023-05-19T15:51:29;9.73;;;4.50;;
43606;SDS011;29197;44.788;10.366;2023-05-19T15:54:18;3.05;;;2.17;;
43606;SDS011;29197;44.788;10.366;2023-05-19T15:57:07;4.55;;;1.58;;
43606;SDS011;29197;44.788;10.366;2023-05-19T15:59:56;2.20;;;1.65;;
43606;SDS011;29197;44.788;10.366;2023-05-19T16:02:46;2.90;;;1.80;;
43606;SDS011;29197;44.788;10.366;2023-05-19T16:05:35;2.95;;;1.92;;
43606;SDS011;29197;44.788;10.366;2023-05-19T16:08:24;3.45;;;2.00;;
43606;SDS011;29197;44.788;10.366;2023-05-19T16:11:13;3.30;;;2.05;;
43606;SDS011;29197;44.788;10.366;2023-05-19T16:14:01;3.58;;;1.83;;
43606;SDS011;29197;44.788;10.366;2023-05-19T16:16:50;1.77;;;1.63;;
43606;SDS011;29197;44.788;10.366;2023-05-19T16:19:40;2.08;;;1.75;;
43606;SDS011;29197;44.788;10.366;2023-05-19T16:22:29;4.15;;;1.88;;
43606;SDS011;29197;44.788;10.366;2023-05-19T16:25:18;3.20;;;1.80;;
43606;SDS011;29197;44.788;10.366;2023-05-19T16:28:07;3.00;;;1.95;;
43606;SDS011;29197;44.788;10.366;2023-05-19T16:30:56;2.47;;;1.95;;
43606;SDS011;29197;44.788;10.366;2023-05-19T16:33:45;3.20;;;1.90;;
43606;SDS011;29197;44.788;10.366;2023-05-19T16:36:35;6.45;;;3.15;;
43606;SDS011;29197;44.788;10.366;2023-05-19T16:39:24;3.28;;;1.65;;
43606;SDS011;29197;44.788;10.366;2023-05-19T16:42:13;1.67;;;1.58;;
43606;SDS011;29197;44.788;10.366;2023-05-19T16:45:02;1.80;;;1.58;;
43606;SDS011;29197;44.788;10.366;2023-05-19T16:47:51;2.83;;;1.25;;
43606;SDS011;29197;44.788;10.366;2023-05-19T16:50:40;4.07;;;1.23;;